createdAt,value
2017-09-02T00:01:57.925Z,17.00
2017-09-02T00:04:25.415Z,16.97
2017-09-02T00:06:52.899Z,16.93
2017-09-02T00:09:20.403Z,16.86
2017-09-02T00:11:47.865Z,16.85
2017-09-02T00:14:15.362Z,16.77
2017-09-02T00:16:42.818Z,16.91
2017-09-02T00:19:10.432Z,16.80
2017-09-02T00:21:37.889Z,16.75
2017-09-02T00:24:05.397Z,16.57
2017-09-02T00:26:32.882Z,16.65
2017-09-02T00:29:01.136Z,16.71
2017-09-02T00:31:28.635Z,16.66
2017-09-02T00:33:56.116Z,16.61
2017-09-02T00:36:23.589Z,16.67
2017-09-02T00:38:51.083Z,16.70
2017-09-02T00:41:18.551Z,16.83
2017-09-02T00:43:46.022Z,16.92
2017-09-02T00:46:13.703Z,17.03
2017-09-02T00:48:41.173Z,17.01
2017-09-02T00:51:09.567Z,16.95
2017-09-02T00:53:37.075Z,16.90
2017-09-02T00:56:06.090Z,16.92
2017-09-02T00:58:33.587Z,16.97
2017-09-02T01:01:01.037Z,16.93
2017-09-02T01:03:28.513Z,16.91
2017-09-02T01:05:55.976Z,16.81
2017-09-02T01:08:23.519Z,16.78
2017-09-02T01:10:50.987Z,16.78
2017-09-02T01:13:18.475Z,16.72
2017-09-02T01:15:45.949Z,16.67
2017-09-02T01:18:13.440Z,16.68
2017-09-02T01:20:40.914Z,16.65
2017-09-02T01:23:08.384Z,16.61
2017-09-02T01:25:35.857Z,16.59
2017-09-02T01:28:03.367Z,16.75
2017-09-02T01:30:38.846Z,16.65
2017-09-02T01:33:06.320Z,16.68
2017-09-02T01:35:33.801Z,16.67
2017-09-02T01:38:01.262Z,16.59
2017-09-02T01:40:28.745Z,16.56
2017-09-02T01:42:56.222Z,16.44
2017-09-02T01:45:23.707Z,16.43
2017-09-02T01:47:51.193Z,16.38
2017-09-02T01:50:18.677Z,16.25
2017-09-02T01:52:46.205Z,16.27
2017-09-02T01:55:13.690Z,16.29
2017-09-02T01:57:41.199Z,16.25
2017-09-02T02:00:08.702Z,16.21
2017-09-02T02:02:36.211Z,16.21
2017-09-02T02:05:03.753Z,16.23
2017-09-02T02:07:31.222Z,16.06
2017-09-02T02:09:58.737Z,16.01
2017-09-02T02:12:26.196Z,15.92
2017-09-02T02:14:53.694Z,15.91
2017-09-02T02:17:21.186Z,16.02
2017-09-02T02:19:48.688Z,16.07
2017-09-02T02:22:16.195Z,16.03
2017-09-02T02:24:43.658Z,16.07
2017-09-02T02:27:11.132Z,16.10
2017-09-02T02:29:38.608Z,16.09
2017-09-02T02:32:06.372Z,16.10
2017-09-02T02:34:33.831Z,16.11
2017-09-02T02:37:01.345Z,16.17
2017-09-02T02:39:35.323Z,16.20
2017-09-02T02:42:02.821Z,16.13
2017-09-02T02:44:30.317Z,16.19
2017-09-02T02:46:57.805Z,16.17
2017-09-02T02:49:25.287Z,16.05
2017-09-02T02:51:52.755Z,16.06
2017-09-02T02:54:20.238Z,15.95
2017-09-02T02:56:47.725Z,15.83
2017-09-02T02:59:16.030Z,15.60
2017-09-02T03:01:43.524Z,15.65
2017-09-02T03:04:10.988Z,15.63
2017-09-02T03:06:38.513Z,15.65
2017-09-02T03:09:05.977Z,15.67
2017-09-02T03:11:33.951Z,15.65
2017-09-02T03:14:01.442Z,15.67
2017-09-02T03:16:29.701Z,15.77
2017-09-02T03:18:57.188Z,15.77
2017-09-02T03:21:24.636Z,15.80
2017-09-02T03:23:52.143Z,15.83
2017-09-02T03:26:19.627Z,15.81
2017-09-02T03:28:47.107Z,15.78
2017-09-02T03:31:14.618Z,15.83
2017-09-02T03:33:42.084Z,15.94
2017-09-02T03:36:10.562Z,15.92
2017-09-02T03:38:38.030Z,15.94
2017-09-02T03:41:05.787Z,15.86
2017-09-02T03:43:33.256Z,15.90
2017-09-02T03:46:00.779Z,15.91
2017-09-02T03:48:28.262Z,15.83
2017-09-02T03:50:56.558Z,15.95
2017-09-02T03:53:24.025Z,15.99
2017-09-02T03:55:51.532Z,16.03
2017-09-02T03:58:19.114Z,15.90
2017-09-02T04:00:46.590Z,15.80
2017-09-02T04:03:14.077Z,15.84
2017-09-02T04:05:43.726Z,15.76
2017-09-02T04:08:12.417Z,15.72
2017-09-02T04:10:39.898Z,15.76
2017-09-02T04:13:07.369Z,15.81
2017-09-02T04:15:34.843Z,15.84
2017-09-02T04:18:04.842Z,15.73
2017-09-02T04:20:32.348Z,15.75
2017-09-02T04:23:02.650Z,15.83
2017-09-02T04:25:30.159Z,15.87
2017-09-02T04:27:57.829Z,15.79
2017-09-02T04:30:25.331Z,15.71
2017-09-02T04:32:52.846Z,15.70
2017-09-02T04:35:20.674Z,15.64
2017-09-02T04:37:48.139Z,15.65
2017-09-02T04:40:15.628Z,15.65
2017-09-02T04:42:43.114Z,15.66
2017-09-02T04:45:10.610Z,15.55
2017-09-02T04:47:38.098Z,15.29
2017-09-02T04:50:05.565Z,15.36
2017-09-02T04:52:33.074Z,15.41
2017-09-02T04:55:00.546Z,15.50
2017-09-02T04:57:28.286Z,15.49
2017-09-02T04:59:55.748Z,15.53
2017-09-02T05:02:23.363Z,15.51
2017-09-02T05:04:50.817Z,15.57
2017-09-02T05:07:18.304Z,15.54
2017-09-02T05:09:45.816Z,15.50
2017-09-02T05:12:13.277Z,15.54
2017-09-02T05:14:40.882Z,15.58
2017-09-02T05:17:08.352Z,15.61
2017-09-02T05:19:35.833Z,15.71
2017-09-02T05:22:03.330Z,15.74
2017-09-02T05:24:30.858Z,15.80
2017-09-02T05:26:58.417Z,15.67
2017-09-02T05:29:25.919Z,15.67
2017-09-02T05:31:53.422Z,15.72
2017-09-02T05:34:20.912Z,15.70
2017-09-02T05:36:48.439Z,15.78
2017-09-02T05:39:16.704Z,15.90
2017-09-02T05:41:44.206Z,15.89
2017-09-02T05:44:11.687Z,15.77
2017-09-02T05:46:39.197Z,15.82
2017-09-02T05:49:06.653Z,15.86
2017-09-02T05:51:34.143Z,15.99
2017-09-02T05:54:01.618Z,15.92
2017-09-02T05:56:29.100Z,16.04
2017-09-02T05:58:56.582Z,16.09
2017-09-02T06:01:24.822Z,16.05
2017-09-02T06:03:52.319Z,15.95
2017-09-02T06:06:19.787Z,16.01
2017-09-02T06:08:47.298Z,15.99
2017-09-02T06:11:14.772Z,15.93
2017-09-02T06:13:42.288Z,15.95
2017-09-02T06:16:09.771Z,16.02
2017-09-02T06:18:37.232Z,16.12
2017-09-02T06:21:04.771Z,16.08
2017-09-02T06:23:32.242Z,16.27
2017-09-02T06:25:59.709Z,16.21
2017-09-02T06:28:27.161Z,16.20
2017-09-02T06:30:55.123Z,16.26
2017-09-02T06:33:22.581Z,16.41
2017-09-02T06:35:50.070Z,16.45
2017-09-02T06:38:17.544Z,16.46
2017-09-02T06:40:45.052Z,16.51
2017-09-02T06:43:12.526Z,16.65
2017-09-02T06:45:39.974Z,16.70
2017-09-02T06:48:07.458Z,16.72
2017-09-02T06:50:34.928Z,16.78
2017-09-02T06:53:02.428Z,16.80
2017-09-02T06:55:29.879Z,16.82
2017-09-02T06:57:57.369Z,16.81
2017-09-02T07:00:24.839Z,16.88
2017-09-02T07:02:52.356Z,16.83
2017-09-02T07:05:19.838Z,16.89
2017-09-02T07:07:47.331Z,16.94
2017-09-02T07:10:14.842Z,17.02
2017-09-02T07:12:42.371Z,17.09
2017-09-02T07:15:09.867Z,17.04
2017-09-02T07:17:37.450Z,17.05
2017-09-02T07:20:05.840Z,17.15
2017-09-02T07:22:33.442Z,16.99
2017-09-02T07:25:00.912Z,16.88
2017-09-02T07:27:28.391Z,17.17
2017-09-02T07:29:55.897Z,17.28
2017-09-02T07:32:23.457Z,16.97
2017-09-02T07:34:50.968Z,16.96
2017-09-02T07:37:18.439Z,16.93
2017-09-02T07:39:45.940Z,16.88
2017-09-02T07:42:13.439Z,16.93
2017-09-02T07:44:40.928Z,17.23
2017-09-02T07:47:08.455Z,17.35
2017-09-02T07:49:35.911Z,17.47
2017-09-02T07:52:04.852Z,17.32
2017-09-02T07:54:32.346Z,17.36
2017-09-02T07:56:59.843Z,17.60
2017-09-02T07:59:28.107Z,17.82
2017-09-02T08:01:56.366Z,17.94
2017-09-02T08:04:23.858Z,17.96
2017-09-02T08:06:51.318Z,17.97
2017-09-02T08:09:18.809Z,18.09
2017-09-02T08:11:46.267Z,17.88
2017-09-02T08:14:13.754Z,17.86
2017-09-02T08:16:41.229Z,17.86
2017-09-02T08:19:08.713Z,17.97
2017-09-02T08:21:36.223Z,17.87
2017-09-02T08:24:03.710Z,17.70
2017-09-02T08:26:31.956Z,17.70
2017-09-02T08:29:00.650Z,17.88
2017-09-02T08:31:28.174Z,17.88
2017-09-02T08:33:55.683Z,17.90
2017-09-02T08:36:23.212Z,17.88
2017-09-02T08:38:50.711Z,17.82
2017-09-02T08:41:18.650Z,17.85
2017-09-02T08:43:46.106Z,17.85
2017-09-02T08:46:13.585Z,17.95
2017-09-02T08:48:41.092Z,18.02
2017-09-02T08:51:10.865Z,18.01
2017-09-02T08:53:38.430Z,17.97
2017-09-02T08:56:07.566Z,18.02
2017-09-02T08:58:35.076Z,18.09
2017-09-02T09:01:02.545Z,18.24
2017-09-02T09:03:30.890Z,18.44
2017-09-02T09:05:58.349Z,18.58
2017-09-02T09:08:25.854Z,18.71
2017-09-02T09:10:53.338Z,18.86
2017-09-02T09:19:06.010Z,18.73
2017-09-02T09:21:33.466Z,19.00
2017-09-02T09:24:00.939Z,19.24
2017-09-02T09:26:28.452Z,19.32
2017-09-02T09:28:56.473Z,19.32
2017-09-02T09:31:25.180Z,19.36
2017-09-02T09:33:53.464Z,19.50
2017-09-02T09:36:20.973Z,19.43
2017-09-02T09:38:48.433Z,19.34
2017-09-02T09:41:15.943Z,19.45
2017-09-02T09:43:43.437Z,19.58
2017-09-02T09:46:10.924Z,19.39
2017-09-02T09:48:38.469Z,19.29
2017-09-02T09:51:05.977Z,19.53
2017-09-02T09:53:33.595Z,19.70
2017-09-02T09:56:01.218Z,19.86
2017-09-02T09:58:28.815Z,20.05
2017-09-02T10:00:57.668Z,20.28
2017-09-02T10:03:25.215Z,20.04
2017-09-02T10:05:52.718Z,19.83
2017-09-02T10:08:20.235Z,19.98
2017-09-02T10:10:47.790Z,20.18
2017-09-02T10:13:15.315Z,20.13
2017-09-02T10:15:42.848Z,20.01
2017-09-02T10:18:11.208Z,20.00
2017-09-02T10:20:38.762Z,20.11
2017-09-02T10:23:06.227Z,19.97
2017-09-02T10:25:33.758Z,20.20
2017-09-02T10:28:01.212Z,20.29
2017-09-02T10:30:28.775Z,20.28
2017-09-02T10:32:58.032Z,20.22
2017-09-02T10:35:28.985Z,20.24
2017-09-02T10:37:56.641Z,19.84
2017-09-02T10:40:24.160Z,20.07
2017-09-02T10:42:51.699Z,20.35
2017-09-02T10:45:19.170Z,20.53
2017-09-02T10:47:46.716Z,20.74
2017-09-02T10:50:14.204Z,20.82
2017-09-02T10:52:42.631Z,20.97
2017-09-02T10:55:10.162Z,21.03
2017-09-02T10:57:37.689Z,21.12
2017-09-02T11:00:06.327Z,21.06
2017-09-02T11:02:33.847Z,21.17
2017-09-02T11:05:01.424Z,21.26
2017-09-02T11:07:28.914Z,21.55
2017-09-02T11:09:57.135Z,21.75
2017-09-02T11:12:25.231Z,21.77
2017-09-02T11:14:52.734Z,21.67
2017-09-02T11:17:20.796Z,21.83
2017-09-02T11:19:48.285Z,21.84
2017-09-02T11:22:15.750Z,21.80
2017-09-02T11:24:44.197Z,22.00
2017-09-02T11:27:11.702Z,22.42
2017-09-02T11:29:39.187Z,22.94
2017-09-02T11:32:06.769Z,23.29
2017-09-02T11:34:34.235Z,23.15
2017-09-02T11:37:01.770Z,22.53
2017-09-02T11:39:29.267Z,21.93
2017-09-02T11:41:56.731Z,22.00
2017-09-02T11:44:24.254Z,22.18
2017-09-02T11:46:51.752Z,22.46
2017-09-02T11:49:19.241Z,22.44
2017-09-02T11:51:46.739Z,22.10
2017-09-02T11:54:14.206Z,21.69
2017-09-02T11:56:41.692Z,22.02
2017-09-02T11:59:09.173Z,22.17
2017-09-02T12:01:36.655Z,22.41
2017-09-02T12:04:04.931Z,22.79
2017-09-02T12:06:32.404Z,23.00
2017-09-02T12:08:59.888Z,23.03
2017-09-02T12:11:27.357Z,23.22
2017-09-02T12:13:55.770Z,23.30
2017-09-02T12:16:23.246Z,23.52
2017-09-02T12:18:50.744Z,23.73
2017-09-02T12:21:18.212Z,23.76
2017-09-02T12:23:45.747Z,23.68
2017-09-02T12:26:13.204Z,23.04
2017-09-02T12:28:40.702Z,21.93
2017-09-02T12:31:08.361Z,21.45
2017-09-02T12:33:35.892Z,21.19
2017-09-02T12:36:04.412Z,21.06
2017-09-02T12:38:31.908Z,20.93
2017-09-02T12:40:59.407Z,20.96
2017-09-02T12:43:26.917Z,20.71
2017-09-02T12:45:54.452Z,20.49
2017-09-02T12:48:21.962Z,20.60
2017-09-02T12:50:50.156Z,20.58
2017-09-02T12:53:18.129Z,20.76
2017-09-02T12:55:45.604Z,21.16
2017-09-02T12:58:13.102Z,21.68
2017-09-02T13:00:40.618Z,22.08
2017-09-02T13:03:08.091Z,22.67
2017-09-02T13:05:35.582Z,22.59
2017-09-02T13:08:03.075Z,23.15
2017-09-02T13:10:30.716Z,23.27
2017-09-02T13:12:58.226Z,23.45
2017-09-02T13:15:25.695Z,23.54
2017-09-02T13:17:53.219Z,23.36
2017-09-02T13:20:20.712Z,22.59
2017-09-02T13:22:48.392Z,22.35
2017-09-02T13:25:15.853Z,21.87
2017-09-02T13:27:43.500Z,21.66
2017-09-02T13:30:11.063Z,21.45
2017-09-02T13:32:38.540Z,20.92
2017-09-02T13:35:06.040Z,21.17
2017-09-02T13:37:33.519Z,21.43
2017-09-02T13:40:00.998Z,21.17
2017-09-02T13:42:29.330Z,20.55
2017-09-02T13:44:57.304Z,20.47
2017-09-02T13:47:24.797Z,20.22
2017-09-02T13:49:52.290Z,19.98
2017-09-02T13:52:19.766Z,20.25
2017-09-02T13:54:47.250Z,20.49
2017-09-02T13:57:14.726Z,20.21
2017-09-02T13:59:42.337Z,19.85
2017-09-02T14:02:09.838Z,19.73
2017-09-02T14:04:37.339Z,19.91
2017-09-02T14:07:05.823Z,20.33
2017-09-02T14:09:33.581Z,20.35
2017-09-02T14:12:01.103Z,20.24
2017-09-02T14:14:28.584Z,20.49
2017-09-02T14:16:56.079Z,21.11
2017-09-02T14:19:23.549Z,21.56
2017-09-02T14:21:51.046Z,21.73
2017-09-02T14:24:18.544Z,21.90
2017-09-02T14:26:46.075Z,21.83
2017-09-02T14:29:13.559Z,21.86
2017-09-02T14:31:41.219Z,21.16
2017-09-02T14:34:08.696Z,20.94
2017-09-02T14:36:36.158Z,21.15
2017-09-02T14:39:03.665Z,21.17
2017-09-02T14:41:31.134Z,21.45
2017-09-02T14:43:58.629Z,21.72
2017-09-02T14:46:26.098Z,21.70
2017-09-02T14:48:53.582Z,22.07
2017-09-02T14:51:21.071Z,21.55
2017-09-02T14:53:48.589Z,21.53
2017-09-02T14:56:16.085Z,21.37
2017-09-02T14:58:43.585Z,21.49
2017-09-02T15:01:11.064Z,21.43
2017-09-02T15:03:38.525Z,21.12
2017-09-02T15:06:06.027Z,21.27
2017-09-02T15:08:33.485Z,21.58
2017-09-02T15:11:01.010Z,21.35
2017-09-02T15:13:28.473Z,21.35
2017-09-02T15:15:55.986Z,21.61
2017-09-02T15:18:23.577Z,21.71
2017-09-02T15:20:51.079Z,21.63
2017-09-02T15:23:18.557Z,21.63
2017-09-02T15:25:46.079Z,21.58
2017-09-02T15:28:13.567Z,21.55
2017-09-02T15:30:41.029Z,21.46
2017-09-02T15:33:08.524Z,21.39
2017-09-02T15:35:35.994Z,21.35
2017-09-02T15:38:03.512Z,21.44
2017-09-02T15:40:31.021Z,22.13
2017-09-02T15:42:58.559Z,22.43
2017-09-02T15:45:26.037Z,22.74
2017-09-02T15:47:53.548Z,23.00
2017-09-02T15:50:21.031Z,22.08
2017-09-02T15:52:48.561Z,22.34
2017-09-02T15:55:16.032Z,22.44
2017-09-02T15:57:43.529Z,22.65
2017-09-02T16:00:11.954Z,23.33
2017-09-02T16:02:39.415Z,23.21
2017-09-02T16:05:06.915Z,23.57
2017-09-02T16:07:34.394Z,23.85
2017-09-02T16:10:01.879Z,24.17
2017-09-02T16:12:30.083Z,24.31
2017-09-02T16:14:57.575Z,24.40
2017-09-02T16:17:25.081Z,23.58
2017-09-02T16:19:52.636Z,22.95
2017-09-02T16:22:20.125Z,23.37
2017-09-02T16:24:47.620Z,22.84
2017-09-02T16:27:15.121Z,22.84
2017-09-02T16:29:43.300Z,23.43
2017-09-02T16:32:10.790Z,23.13
2017-09-02T16:34:38.435Z,22.86
2017-09-02T16:37:05.969Z,22.86
2017-09-02T16:39:33.484Z,23.61
2017-09-02T16:42:01.010Z,23.97
2017-09-02T16:44:28.478Z,24.02
2017-09-02T16:46:56.021Z,24.00
2017-09-02T16:49:23.559Z,23.97
2017-09-02T16:51:51.040Z,23.86
2017-09-02T16:54:18.504Z,23.15
2017-09-02T16:56:46.030Z,22.86
2017-09-02T16:59:13.599Z,22.78
2017-09-02T17:01:41.176Z,22.60
2017-09-02T17:04:08.711Z,22.56
2017-09-02T17:06:36.244Z,22.48
2017-09-02T17:09:03.770Z,22.22
2017-09-02T17:11:31.294Z,22.59
2017-09-02T17:13:58.814Z,22.67
2017-09-02T17:16:26.331Z,21.91
2017-09-02T17:18:53.840Z,21.58
2017-09-02T17:21:21.308Z,21.47
2017-09-02T17:23:48.805Z,21.67
2017-09-02T17:26:16.307Z,21.84
2017-09-02T17:28:43.790Z,21.18
2017-09-02T17:31:11.333Z,21.01
2017-09-02T17:33:38.813Z,20.86
2017-09-02T17:36:06.344Z,21.08
2017-09-02T17:38:33.838Z,21.06
2017-09-02T17:41:01.305Z,20.82
2017-09-02T17:43:28.821Z,20.78
2017-09-02T17:45:56.636Z,20.57
2017-09-02T17:48:24.177Z,20.24
2017-09-02T17:50:51.705Z,20.19
2017-09-02T17:53:19.462Z,20.36
2017-09-02T17:55:46.951Z,20.43
2017-09-02T17:58:14.475Z,20.32
2017-09-02T18:00:41.946Z,19.98
2017-09-02T18:03:09.428Z,19.89
2017-09-02T18:05:36.933Z,20.01
2017-09-02T18:08:04.410Z,19.95
2017-09-02T18:10:31.929Z,19.99
2017-09-02T18:12:59.417Z,19.92
2017-09-02T18:15:26.928Z,19.69
2017-09-02T18:17:55.927Z,19.53
2017-09-02T18:20:23.449Z,19.24
2017-09-02T18:22:50.953Z,19.01
2017-09-02T18:25:18.473Z,18.79
2017-09-02T18:27:46.006Z,19.22
2017-09-02T18:30:13.490Z,19.19
2017-09-02T18:32:41.026Z,19.22
2017-09-02T18:35:08.780Z,19.19
2017-09-02T18:37:36.634Z,19.26
2017-09-02T18:40:04.129Z,19.19
2017-09-02T18:42:33.115Z,19.08
2017-09-02T18:45:00.614Z,19.15
2017-09-02T18:47:28.134Z,19.17
2017-09-02T18:49:55.912Z,19.16
2017-09-02T18:52:23.424Z,18.85
2017-09-02T18:54:50.977Z,18.79
2017-09-02T18:57:18.452Z,19.00
2017-09-02T18:59:46.607Z,19.08
2017-09-02T19:02:14.145Z,19.07
2017-09-02T19:04:41.710Z,19.08
2017-09-02T19:07:09.678Z,19.07
2017-09-02T19:09:37.230Z,19.16
2017-09-02T19:12:05.455Z,19.15
2017-09-02T19:14:32.974Z,19.04
2017-09-02T19:17:01.057Z,18.95
2017-09-02T19:19:28.578Z,18.95
2017-09-02T19:21:56.119Z,18.89
2017-09-02T19:24:24.577Z,18.85
2017-09-02T19:26:52.136Z,18.82
2017-09-02T19:29:20.882Z,18.68
2017-09-02T19:31:51.419Z,18.58
2017-09-02T19:34:20.819Z,18.56
2017-09-02T19:36:48.351Z,18.53
2017-09-02T19:39:15.822Z,18.44
2017-09-02T19:41:43.315Z,18.32
2017-09-02T19:44:10.775Z,18.31
2017-09-02T19:46:38.266Z,18.13
2017-09-02T19:49:05.982Z,18.17
2017-09-02T19:51:33.579Z,18.06
2017-09-02T19:54:01.058Z,18.03
2017-09-02T19:56:28.513Z,17.96
2017-09-02T19:58:56.005Z,17.80
2017-09-02T20:01:23.483Z,17.77
2017-09-02T20:03:55.927Z,17.82
2017-09-02T20:06:23.406Z,17.81
2017-09-02T20:08:50.909Z,17.71
2017-09-02T20:11:18.387Z,17.55
2017-09-02T20:13:45.891Z,17.43
2017-09-02T20:16:13.364Z,17.22
2017-09-02T20:18:40.858Z,17.34
2017-09-02T20:21:08.322Z,17.41
2017-09-02T20:23:37.464Z,17.31
2017-09-02T20:26:05.836Z,17.36
2017-09-02T20:28:33.285Z,17.35
2017-09-02T20:31:00.809Z,17.39
2017-09-02T20:33:28.351Z,17.36
2017-09-02T20:35:55.846Z,17.30
2017-09-02T20:38:23.323Z,17.34
2017-09-02T20:40:50.809Z,17.24
2017-09-02T20:43:18.286Z,17.12
2017-09-02T20:45:45.783Z,17.23
2017-09-02T20:48:13.263Z,17.08
2017-09-02T20:50:40.720Z,17.16
2017-09-02T20:53:08.254Z,17.24
2017-09-02T20:55:35.726Z,17.22
2017-09-02T20:58:03.239Z,17.05
2017-09-02T21:00:31.120Z,17.01
2017-09-02T21:03:02.295Z,17.09
2017-09-02T21:05:29.799Z,17.06
2017-09-02T21:07:59.537Z,16.74
2017-09-02T21:10:28.055Z,16.81
2017-09-02T21:12:56.797Z,16.72
2017-09-02T21:15:25.766Z,16.63
2017-09-02T21:17:53.618Z,16.64
2017-09-02T21:20:22.564Z,16.64
2017-09-02T21:22:50.070Z,16.54
2017-09-02T21:25:17.541Z,16.57
2017-09-02T21:30:51.294Z,16.50
2017-09-02T21:33:18.803Z,16.49
2017-09-02T21:35:47.162Z,16.32
2017-09-02T21:38:16.706Z,16.53
2017-09-02T21:40:47.737Z,16.57
2017-09-02T21:43:15.259Z,16.53
2017-09-02T21:45:42.717Z,16.50
2017-09-02T21:48:10.215Z,16.33
2017-09-02T21:50:37.689Z,16.23
2017-09-02T21:53:05.372Z,16.27
2017-09-02T21:55:32.854Z,16.37
2017-09-02T22:01:02.360Z,16.31
2017-09-02T22:03:29.987Z,16.22
2017-09-02T22:05:57.464Z,16.16
2017-09-02T22:08:24.967Z,16.29
2017-09-02T22:10:52.456Z,16.38
2017-09-02T22:13:19.927Z,16.28
2017-09-02T22:15:47.414Z,16.21
2017-09-02T22:18:14.889Z,16.10
2017-09-02T22:20:42.406Z,16.10
2017-09-02T22:23:09.875Z,16.01
2017-09-02T22:25:37.370Z,15.96
2017-09-02T22:28:05.020Z,15.91
2017-09-02T22:30:32.513Z,15.90
2017-09-02T22:33:00.770Z,15.87
2017-09-02T22:35:28.258Z,15.81
2017-09-02T22:37:55.752Z,15.66
2017-09-02T22:40:23.229Z,15.55
2017-09-02T22:42:50.722Z,15.68
2017-09-02T22:45:18.237Z,15.74
2017-09-02T22:47:45.705Z,15.79
2017-09-02T22:50:13.234Z,15.62
2017-09-02T22:52:40.723Z,15.64
2017-09-02T22:55:08.843Z,15.59
2017-09-02T22:57:36.318Z,15.55
2017-09-02T23:00:04.783Z,15.54
2017-09-02T23:02:32.259Z,15.69
2017-09-02T23:04:59.758Z,15.75
2017-09-02T23:07:27.256Z,15.47
2017-09-02T23:09:55.073Z,15.41
2017-09-02T23:12:22.568Z,15.26
2017-09-02T23:14:50.054Z,15.18
2017-09-02T23:17:17.810Z,15.16
2017-09-02T23:19:45.288Z,15.17
2017-09-02T23:22:12.759Z,15.32
2017-09-02T23:24:40.953Z,15.42
2017-09-02T23:27:08.551Z,15.32
2017-09-02T23:29:36.023Z,15.26
2017-09-02T23:32:03.532Z,15.33
2017-09-02T23:34:30.996Z,15.10
2017-09-02T23:36:58.482Z,15.00
2017-09-02T23:39:25.945Z,15.08
2017-09-02T23:41:53.433Z,14.97
2017-09-02T23:44:20.924Z,14.92
2017-09-02T23:46:48.423Z,14.89
2017-09-02T23:49:15.879Z,14.92
2017-09-02T23:51:43.373Z,14.91
2017-09-02T23:54:10.909Z,14.90
2017-09-02T23:56:38.403Z,14.92
2017-09-02T23:59:05.898Z,14.94
